KSPW

Spencer Municipal Airport

Spencer, Iowa, USA
METAR KSPW 222253Z AUTO 30005KT 10SM SCT043 23/16 A2983 RMK AO2 SLP097 T02330161
Observed Flight Rules
Jun-22 @ 22:53 UTC (8 minutes ago) Visual Flight Rules
Wind Visibility Clouds
300° at 5 knots 10 miles
  • Scattered at 4,300' AGL
Temperatures Readings
Current 23°C / 73°F
Dewpoint 16°C / 61°F
Humidity 65%
Altimeter 29.83" Hg
Pressure 1009.7 hPa
Elevation 403
METAR KSPW 222253Z AUTO 30005KT 10SM SCT043 23/16 A2983 RMK AO2 SLP097 T02330161
Observed Flight Rules
Jun-22 @ 22:53 UTC
(8 minutes ago)
VFR
Wind Visibility
300° at 5 knots 10 miles
Clouds
  • Scattered at 4,300' AGL
Temperature Dewpoint
23°C / 73°F 16°C / 61°F
Humidity Altimeter Pressure
65% 29.83" Hg 1009.7 hPa